Double Springs, Alabama
Current Conditions -  °F | °C
As of 9:56 PM on Sunday 23 Nov 2014 (Local Time) from K1M4 Reporting Station
Broken Clouds Broken Clouds  
Wind Chill: 16°   Ceiling: 1900
Heat Index: 16°   Visibility: 10mi
Dew Point: 14°   Wind: 16mph
Humidity: 90%   Direction: 190°S
Pressure: 29.61"   Gusts: 21mph
Location:  34.15°N, 87.4°W
Report Text: K1M4 240356Z AUTO 19014G18KT 10SM BKN019 16/14 A2961 RMK AO2 T01610144 SLP042
Loading
Personal Weather Stations






























Interactive Weather Map New forecast layout! Learn more

10-Day Weather Forecast

Advertisements
Track Severe Weather on mobile